createdAt,value
2022-08-09T00:00:13.890Z,18.97
2022-08-09T00:02:42.986Z,18.84
2022-08-09T00:06:18.189Z,18.82
2022-08-09T00:08:10.055Z,18.88
2022-08-09T00:10:38.382Z,18.89
2022-08-09T00:13:17.588Z,18.86
2022-08-09T00:15:59.340Z,18.87
2022-08-09T00:18:35.821Z,18.85
2022-08-09T00:21:07.819Z,18.81
2022-08-09T00:23:57.762Z,18.77
2022-08-09T00:26:29.935Z,18.82
2022-08-09T00:29:00.856Z,18.80
2022-08-09T00:31:55.886Z,18.78
2022-08-09T00:34:14.175Z,18.75
2022-08-09T00:36:42.056Z,18.79
2022-08-09T00:39:16.793Z,18.77
2022-08-09T00:44:10.586Z,18.75
2022-08-09T00:44:43.284Z,18.68
2022-08-09T00:47:15.316Z,18.74
2022-08-09T00:49:42.646Z,18.85
2022-08-09T00:52:19.534Z,18.86
2022-08-09T00:54:48.482Z,18.81
2022-08-09T00:57:31.866Z,18.76
2022-08-09T01:00:00.903Z,18.73
2022-08-09T01:02:31.258Z,18.69
2022-08-09T01:05:14.235Z,18.73
2022-08-09T01:08:00.221Z,18.77
2022-08-09T01:10:51.170Z,18.77
2022-08-09T01:13:59.041Z,18.69
2022-08-09T01:16:31.858Z,18.59
2022-08-09T01:19:04.878Z,18.49
2022-08-09T01:21:51.130Z,18.46
2022-08-09T01:24:32.351Z,18.40
2022-08-09T01:27:04.185Z,18.35
2022-08-09T01:29:55.964Z,18.31
2022-08-09T01:32:31.873Z,18.27
2022-08-09T01:35:07.008Z,18.21
2022-08-09T01:38:08.418Z,18.17
2022-08-09T01:40:35.694Z,18.13
2022-08-09T01:43:04.574Z,18.07
2022-08-09T01:45:34.368Z,18.06
2022-08-09T01:48:11.572Z,18.03
2022-08-09T01:50:48.218Z,18.00
2022-08-09T01:53:19.529Z,18.03
2022-08-09T01:55:48.205Z,18.03
2022-08-09T01:58:16.639Z,18.05
2022-08-09T02:00:46.282Z,18.17
2022-08-09T02:03:19.422Z,18.31
2022-08-09T02:06:03.453Z,18.18
2022-08-09T02:08:39.997Z,18.19
2022-08-09T02:11:20.161Z,18.25
2022-08-09T02:14:06.586Z,18.32
2022-08-09T02:16:53.438Z,18.22
2022-08-09T02:19:24.110Z,18.18
2022-08-09T02:22:08.047Z,18.13
2022-08-09T02:24:38.114Z,18.14
2022-08-09T02:27:08.570Z,18.08
2022-08-09T02:29:41.636Z,18.02
2022-08-09T02:32:10.829Z,18.04
2022-08-09T02:34:41.594Z,18.02
2022-08-09T02:37:31.741Z,17.97
2022-08-09T02:40:09.307Z,17.87
2022-08-09T02:42:43.100Z,17.82
2022-08-09T02:45:26.712Z,17.77
2022-08-09T02:48:00.886Z,17.80
2022-08-09T02:50:33.356Z,17.80
2022-08-09T02:53:07.743Z,17.78
2022-08-09T02:55:57.485Z,17.74
2022-08-09T02:58:35.895Z,17.70
2022-08-09T03:01:08.318Z,17.67
2022-08-09T03:04:16.526Z,17.68
2022-08-09T03:06:27.854Z,17.65
2022-08-09T03:08:56.846Z,17.56
2022-08-09T03:12:04.649Z,17.56
2022-08-09T03:14:12.802Z,17.52
2022-08-09T03:16:44.986Z,17.47
2022-08-09T03:19:14.108Z,17.43
2022-08-09T03:21:43.656Z,17.43
2022-08-09T03:24:31.175Z,17.40
2022-08-09T03:27:03.693Z,17.33
2022-08-09T03:29:35.652Z,17.29
2022-08-09T03:32:22.868Z,17.27
2022-08-09T03:34:49.510Z,17.22
2022-08-09T03:37:54.757Z,17.21
2022-08-09T03:40:08.430Z,17.17
2022-08-09T03:42:39.801Z,17.15
2022-08-09T03:45:10.492Z,17.15
2022-08-09T03:47:41.818Z,17.13
2022-08-09T03:50:11.125Z,17.12
2022-08-09T03:52:40.560Z,17.09
2022-08-09T03:55:10.665Z,17.06
2022-08-09T03:57:44.662Z,17.08
2022-08-09T04:00:29.325Z,17.10
2022-08-09T04:02:58.338Z,17.11
2022-08-09T04:05:27.786Z,17.11
2022-08-09T04:07:57.328Z,17.11
2022-08-09T04:10:29.049Z,17.11
2022-08-09T04:12:58.267Z,17.08
2022-08-09T04:15:40.437Z,17.07
2022-08-09T04:18:16.495Z,17.05
2022-08-09T04:20:46.003Z,17.06
2022-08-09T04:23:17.308Z,17.06
2022-08-09T04:25:49.677Z,17.05
2022-08-09T04:28:34.293Z,17.08
2022-08-09T04:31:09.278Z,17.09
2022-08-09T04:33:52.951Z,17.13
2022-08-09T04:36:25.947Z,17.14
2022-08-09T04:38:53.658Z,17.16
2022-08-09T04:41:24.018Z,17.20
2022-08-09T04:44:05.281Z,17.22
2022-08-09T04:46:57.455Z,17.29
2022-08-09T04:49:40.831Z,17.35
2022-08-09T04:52:09.641Z,17.44
2022-08-09T04:54:37.040Z,17.48
2022-08-09T04:57:04.241Z,17.49
2022-08-09T04:59:31.537Z,17.54
2022-08-09T05:01:58.221Z,17.62
2022-08-09T05:04:31.147Z,17.69
2022-08-09T05:06:58.565Z,17.72
2022-08-09T05:09:41.871Z,17.78
2022-08-09T05:12:11.089Z,17.87
2022-08-09T05:14:39.163Z,17.93
2022-08-09T05:18:36.760Z,18.02
2022-08-09T05:19:56.656Z,18.08
2022-08-09T05:22:33.458Z,18.17
2022-08-09T05:25:04.802Z,18.23
2022-08-09T05:27:31.435Z,18.28
2022-08-09T05:29:58.073Z,18.40
2022-08-09T05:32:26.265Z,18.47
2022-08-09T05:34:56.758Z,18.55
2022-08-09T05:37:23.837Z,18.63
2022-08-09T05:39:51.795Z,18.72
2022-08-09T05:42:21.787Z,18.81
2022-08-09T05:44:53.557Z,18.90
2022-08-09T05:47:25.281Z,18.98
2022-08-09T05:50:31.136Z,19.08
2022-08-09T05:52:43.536Z,19.14
2022-08-09T05:55:20.963Z,19.19
2022-08-09T05:57:55.525Z,19.28
2022-08-09T06:00:29.144Z,19.35
2022-08-09T06:03:00.126Z,19.43
2022-08-09T06:05:50.653Z,19.51
2022-08-09T06:08:19.873Z,19.59
2022-08-09T06:10:52.766Z,19.68
2022-08-09T06:13:20.647Z,19.77
2022-08-09T06:15:51.745Z,19.85
2022-08-09T06:18:20.909Z,19.94
2022-08-09T06:20:54.780Z,20.03
2022-08-09T06:23:55.197Z,20.11
2022-08-09T06:26:14.839Z,20.20
2022-08-09T06:28:47.227Z,20.33
2022-08-09T06:31:13.800Z,20.45
2022-08-09T06:33:42.108Z,20.55
2022-08-09T06:36:15.364Z,20.67
2022-08-09T06:38:50.282Z,20.75
2022-08-09T06:41:18.299Z,20.86
2022-08-09T06:43:46.953Z,20.95
2022-08-09T06:46:39.540Z,21.03
2022-08-09T06:49:01.462Z,21.15
2022-08-09T06:51:28.245Z,21.23
2022-08-09T06:53:55.352Z,21.33
2022-08-09T06:56:21.875Z,21.44
2022-08-09T07:00:56.498Z,21.54
2022-08-09T07:01:57.878Z,21.61
2022-08-09T07:04:27.096Z,21.70
2022-08-09T07:07:00.443Z,21.76
2022-08-09T07:09:54.900Z,21.83
2022-08-09T07:12:18.140Z,21.95
2022-08-09T07:14:51.188Z,22.03
2022-08-09T07:17:19.889Z,22.11
2022-08-09T07:19:48.229Z,22.19
2022-08-09T07:22:39.585Z,22.25
2022-08-09T07:25:10.785Z,22.39
2022-08-09T07:27:42.398Z,22.50
2022-08-09T07:30:13.346Z,22.60
2022-08-09T07:32:43.591Z,22.74
2022-08-09T07:35:14.730Z,22.84
2022-08-09T07:37:45.734Z,22.95
2022-08-09T07:40:20.370Z,23.06
2022-08-09T07:42:54.509Z,23.14
2022-08-09T07:45:33.328Z,23.22
2022-08-09T07:48:06.127Z,23.25
2022-08-09T07:50:36.771Z,23.28
2022-08-09T07:53:04.532Z,23.39
2022-08-09T07:55:41.609Z,23.52
2022-08-09T07:58:18.638Z,23.61
2022-08-09T08:00:55.961Z,23.68
2022-08-09T08:03:33.123Z,23.80
2022-08-09T08:06:03.492Z,23.92
2022-08-09T08:09:02.323Z,24.02
2022-08-09T08:12:10.225Z,24.07
2022-08-09T08:14:04.820Z,24.20
2022-08-09T08:16:32.968Z,24.34
2022-08-09T08:19:03.233Z,24.43
2022-08-09T08:21:31.484Z,24.54
2022-08-09T08:24:00.879Z,24.67
2022-08-09T08:26:41.833Z,24.77
2022-08-09T08:29:15.077Z,24.90
2022-08-09T08:32:03.927Z,25.02
2022-08-09T08:34:34.665Z,25.17
2022-08-09T08:37:03.959Z,25.31
2022-08-09T08:39:39.663Z,25.43
2022-08-09T08:42:11.329Z,25.52
2022-08-09T08:44:38.060Z,25.60
2022-08-09T08:47:12.781Z,25.69
2022-08-09T08:49:47.757Z,25.80
2022-08-09T08:52:52.734Z,25.94
2022-08-09T08:55:08.507Z,26.10
2022-08-09T08:57:37.106Z,26.23
2022-08-09T09:00:13.150Z,26.38
2022-08-09T09:02:52.227Z,26.50
2022-08-09T09:05:57.433Z,26.62
2022-08-09T09:08:29.249Z,26.75
2022-08-09T09:11:01.057Z,26.82
2022-08-09T09:13:34.702Z,26.92
2022-08-09T09:16:14.050Z,27.07
2022-08-09T09:18:48.737Z,27.17
2022-08-09T09:21:25.225Z,27.32
2022-08-09T09:23:58.369Z,27.41
2022-08-09T09:26:26.159Z,27.54
2022-08-09T09:29:03.663Z,27.57
2022-08-09T09:32:03.726Z,27.65
2022-08-09T09:34:23.872Z,27.78
2022-08-09T09:36:53.349Z,27.92
2022-08-09T09:39:50.238Z,28.06
2022-08-09T09:42:25.819Z,28.24
2022-08-09T09:45:00.433Z,28.34
2022-08-09T09:47:28.732Z,28.50
2022-08-09T09:50:14.267Z,28.61
2022-08-09T09:52:53.694Z,28.66
2022-08-09T09:55:28.263Z,28.74
2022-08-09T09:58:16.444Z,28.82
2022-08-09T10:00:59.007Z,28.94
2022-08-09T10:03:40.146Z,29.03
2022-08-09T10:06:07.074Z,29.14
2022-08-09T10:08:54.412Z,29.21
2022-08-09T10:11:54.003Z,29.42
2022-08-09T10:14:30.963Z,29.58
2022-08-09T10:17:38.708Z,29.76
2022-08-09T10:19:57.071Z,29.94
2022-08-09T10:22:39.008Z,30.12
2022-08-09T10:25:12.438Z,30.32
2022-08-09T10:27:57.150Z,30.48
2022-08-09T10:32:04.265Z,30.67
2022-08-09T10:34:07.710Z,30.83
2022-08-09T10:36:01.240Z,30.95
2022-08-09T10:38:54.881Z,31.09
2022-08-09T10:41:18.587Z,31.25
2022-08-09T10:44:01.094Z,31.37
2022-08-09T10:47:01.394Z,31.28
2022-08-09T10:50:14.802Z,31.40
2022-08-09T10:53:21.132Z,31.21
2022-08-09T10:55:58.270Z,31.26
2022-08-09T10:58:34.701Z,31.42
2022-08-09T11:03:07.341Z,31.41
2022-08-09T11:04:19.859Z,31.40
2022-08-09T11:07:01.537Z,31.39
2022-08-09T11:09:37.476Z,31.32
2022-08-09T11:12:26.395Z,31.21
2022-08-09T11:15:18.468Z,31.17
2022-08-09T11:17:56.916Z,31.22
2022-08-09T11:20:43.279Z,31.27
2022-08-09T11:23:10.545Z,31.50
2022-08-09T11:25:47.091Z,31.78
2022-08-09T11:28:34.472Z,32.06
2022-08-09T11:31:52.943Z,32.29
2022-08-09T11:34:29.381Z,32.51
2022-08-09T11:36:57.551Z,32.50
2022-08-09T11:39:24.471Z,32.58
2022-08-09T11:41:53.639Z,32.58
2022-08-09T11:44:44.236Z,32.59
2022-08-09T11:47:11.000Z,32.52
2022-08-09T11:50:54.378Z,32.21
2022-08-09T11:53:20.931Z,32.19
2022-08-09T11:55:53.587Z,31.99
2022-08-09T11:58:32.953Z,31.87
2022-08-09T12:01:37.539Z,31.87
2022-08-09T12:04:04.153Z,31.87
2022-08-09T12:06:34.958Z,31.60
2022-08-09T12:09:06.266Z,31.64
2022-08-09T12:12:02.286Z,31.53
2022-08-09T12:14:40.535Z,31.39
2022-08-09T12:17:34.091Z,31.43
2022-08-09T12:20:21.922Z,31.43
2022-08-09T12:22:56.047Z,31.41
2022-08-09T12:25:36.817Z,31.39
2022-08-09T12:29:13.271Z,31.38
2022-08-09T12:31:11.168Z,31.40
2022-08-09T12:33:58.616Z,31.40
2022-08-09T12:36:32.420Z,31.36
2022-08-09T12:39:00.683Z,31.33
2022-08-09T12:41:33.702Z,31.33
2022-08-09T12:44:07.895Z,31.11
2022-08-09T12:46:39.665Z,31.10
2022-08-09T12:49:08.692Z,30.98
2022-08-09T12:52:01.448Z,30.89
2022-08-09T12:54:22.203Z,30.73
2022-08-09T12:56:53.929Z,30.28
2022-08-09T12:59:24.521Z,30.23
2022-08-09T13:02:09.280Z,30.25
2022-08-09T13:04:38.779Z,30.27
2022-08-09T13:07:19.553Z,30.33
2022-08-09T13:09:55.501Z,30.16
2022-08-09T13:12:28.025Z,30.20
2022-08-09T13:15:07.457Z,30.10
2022-08-09T13:18:02.435Z,30.01
2022-08-09T13:20:50.156Z,29.86
2022-08-09T13:24:15.936Z,29.79
2022-08-09T13:26:42.303Z,29.84
2022-08-09T13:29:17.664Z,29.77
2022-08-09T13:32:25.451Z,29.81
2022-08-09T13:34:55.566Z,29.84
2022-08-09T13:37:50.568Z,29.79
2022-08-09T13:41:51.052Z,29.79
2022-08-09T13:42:56.494Z,29.82
2022-08-09T13:45:32.143Z,29.87
2022-08-09T13:48:10.665Z,29.88
2022-08-09T13:50:37.693Z,29.86
2022-08-09T13:53:04.245Z,29.97
2022-08-09T13:55:34.226Z,30.03
2022-08-09T13:58:05.088Z,30.06
2022-08-09T14:00:46.773Z,30.15
2022-08-09T14:04:02.622Z,30.17
2022-08-09T14:06:14.674Z,30.22
2022-08-09T14:08:46.738Z,30.20
2022-08-09T14:11:16.077Z,30.16
2022-08-09T14:14:22.720Z,30.16
2022-08-09T14:16:30.165Z,30.12
2022-08-09T14:18:57.322Z,30.21
2022-08-09T14:21:25.675Z,30.30
2022-08-09T14:23:57.314Z,30.38
2022-08-09T14:26:31.463Z,30.38
2022-08-09T14:29:07.444Z,30.37
2022-08-09T14:31:51.978Z,30.38
2022-08-09T14:34:31.873Z,30.42
2022-08-09T14:37:06.726Z,30.41
2022-08-09T14:39:40.174Z,30.48
2022-08-09T14:42:31.669Z,30.51
2022-08-09T14:46:40.014Z,30.54
2022-08-09T14:47:58.177Z,30.56
2022-08-09T14:50:27.673Z,30.65
2022-08-09T14:52:54.612Z,30.77
2022-08-09T14:55:21.391Z,30.90
2022-08-09T14:57:49.179Z,31.68
2022-08-09T15:00:19.306Z,31.95
2022-08-09T15:02:47.285Z,32.02
2022-08-09T15:05:18.313Z,31.90
2022-08-09T15:07:45.656Z,31.94
2022-08-09T15:10:24.957Z,31.78
2022-08-09T15:12:55.664Z,31.73
2022-08-09T15:15:23.533Z,31.53
2022-08-09T15:17:52.941Z,31.51
2022-08-09T15:21:54.922Z,31.32
2022-08-09T15:23:56.099Z,31.24
2022-08-09T15:25:57.435Z,31.17
2022-08-09T15:28:28.521Z,31.42
2022-08-09T15:31:09.885Z,31.14
2022-08-09T15:34:04.413Z,30.98
2022-08-09T15:36:28.807Z,30.81
2022-08-09T15:38:57.100Z,30.70
2022-08-09T15:41:31.416Z,30.60
2022-08-09T15:43:59.680Z,30.55
2022-08-09T15:46:34.515Z,30.45
2022-08-09T15:49:22.159Z,30.61
2022-08-09T15:52:02.857Z,30.50
2022-08-09T15:54:44.271Z,30.54
2022-08-09T15:57:19.057Z,30.38
2022-08-09T16:00:01.867Z,30.40
2022-08-09T16:02:28.420Z,30.40
2022-08-09T16:04:55.602Z,30.41
2022-08-09T16:07:22.495Z,30.37
2022-08-09T16:10:04.916Z,30.37
2022-08-09T16:12:32.817Z,30.25
2022-08-09T16:15:00.340Z,30.19
2022-08-09T16:17:28.710Z,30.05
2022-08-09T16:20:04.740Z,30.00
2022-08-09T16:22:32.415Z,29.96
2022-08-09T16:25:01.443Z,29.96
2022-08-09T16:27:29.811Z,29.91
2022-08-09T16:30:00.693Z,30.27
2022-08-09T16:32:49.610Z,30.18
2022-08-09T16:35:56.537Z,30.01
2022-08-09T16:38:08.078Z,29.90
2022-08-09T16:40:41.059Z,29.72
2022-08-09T16:43:08.400Z,29.63
2022-08-09T16:45:35.071Z,29.51
2022-08-09T16:48:38.241Z,29.37
2022-08-09T16:50:59.014Z,29.30
2022-08-09T16:53:32.157Z,29.16
2022-08-09T16:56:05.917Z,29.08
2022-08-09T16:58:36.946Z,28.93
2022-08-09T17:01:04.705Z,28.86
2022-08-09T17:03:31.741Z,28.79
2022-08-09T17:06:07.646Z,28.70
2022-08-09T17:09:01.432Z,28.62
2022-08-09T17:11:40.256Z,28.49
2022-08-09T17:14:16.235Z,28.38
2022-08-09T17:16:59.732Z,28.32
2022-08-09T17:19:47.652Z,28.32
2022-08-09T17:22:16.123Z,28.19
2022-08-09T17:24:55.407Z,28.04
2022-08-09T17:27:22.354Z,28.01
2022-08-09T17:29:50.656Z,27.91
2022-08-09T17:32:20.430Z,27.81
2022-08-09T17:35:07.659Z,27.74
2022-08-09T17:38:11.580Z,27.68
2022-08-09T17:40:26.468Z,27.68
2022-08-09T17:42:59.437Z,27.56
2022-08-09T17:45:37.652Z,27.51
2022-08-09T17:48:17.157Z,27.33
2022-08-09T17:50:48.609Z,27.28
2022-08-09T17:53:23.381Z,27.20
2022-08-09T17:55:54.083Z,27.11
2022-08-09T17:58:27.135Z,27.07
2022-08-09T18:00:56.750Z,26.98
2022-08-09T18:03:24.947Z,26.86
2022-08-09T18:05:52.926Z,26.71
2022-08-09T18:08:22.035Z,26.59
2022-08-09T18:11:01.591Z,26.57
2022-08-09T18:13:38.947Z,26.42
2022-08-09T18:16:12.534Z,26.30
2022-08-09T18:18:43.052Z,26.31
2022-08-09T18:21:23.152Z,26.24
2022-08-09T18:24:10.889Z,26.18
2022-08-09T18:26:46.349Z,26.04
2022-08-09T18:30:41.257Z,25.98
2022-08-09T18:32:05.614Z,25.93
2022-08-09T18:34:35.170Z,25.94
2022-08-09T18:37:10.498Z,25.87
2022-08-09T18:39:53.055Z,25.77
2022-08-09T18:42:19.843Z,25.71
2022-08-09T18:44:47.815Z,25.72
2022-08-09T18:47:17.546Z,25.72
2022-08-09T18:49:47.330Z,25.67
2022-08-09T18:52:18.818Z,25.66
2022-08-09T18:54:55.083Z,25.57
2022-08-09T18:57:22.914Z,25.50
2022-08-09T18:59:55.182Z,25.44
2022-08-09T19:02:30.780Z,25.41
2022-08-09T19:05:14.960Z,25.39
2022-08-09T19:08:04.298Z,25.36
2022-08-09T19:10:37.136Z,25.34
2022-08-09T19:13:22.970Z,25.28
2022-08-09T19:15:56.248Z,25.28
2022-08-09T19:18:34.143Z,25.27
2022-08-09T19:21:09.579Z,25.25
2022-08-09T19:24:31.472Z,25.23
2022-08-09T19:26:31.262Z,25.22
2022-08-09T19:29:01.688Z,25.18
2022-08-09T19:31:30.430Z,25.16
2022-08-09T19:34:21.140Z,25.14
2022-08-09T19:36:53.583Z,25.11
2022-08-09T19:39:42.980Z,25.09
2022-08-09T19:42:08.242Z,25.05
2022-08-09T19:44:35.416Z,24.99
2022-08-09T19:47:02.699Z,24.93
2022-08-09T19:50:06.998Z,24.91
2022-08-09T19:52:18.311Z,24.85
2022-08-09T19:54:45.085Z,24.78
2022-08-09T19:57:12.212Z,24.69
2022-08-09T19:59:59.344Z,24.61
2022-08-09T20:04:07.181Z,24.51
2022-08-09T20:05:15.242Z,24.39
2022-08-09T20:07:59.760Z,24.32
2022-08-09T20:10:37.101Z,24.25
2022-08-09T20:13:05.845Z,24.18
2022-08-09T20:16:35.537Z,24.12
2022-08-09T20:18:22.132Z,24.08
2022-08-09T20:20:50.446Z,24.03
2022-08-09T20:23:21.139Z,24.00
2022-08-09T20:25:52.829Z,23.91
2022-08-09T20:28:34.640Z,23.87
2022-08-09T20:31:11.204Z,23.86
2022-08-09T20:33:43.878Z,23.81
2022-08-09T20:36:11.337Z,23.77
2022-08-09T20:39:17.038Z,23.72
2022-08-09T20:41:29.219Z,23.72
2022-08-09T20:44:02.289Z,23.72
2022-08-09T20:46:41.882Z,23.73
2022-08-09T20:49:11.262Z,23.75
2022-08-09T20:51:40.917Z,23.78
2022-08-09T20:54:12.804Z,23.76
2022-08-09T20:56:47.233Z,23.71
2022-08-09T20:59:17.137Z,23.70
2022-08-09T21:01:50.294Z,23.62
2022-08-09T21:05:50.797Z,23.60
2022-08-09T21:07:11.794Z,23.52
2022-08-09T21:09:45.804Z,23.52
2022-08-09T21:12:23.187Z,23.52
2022-08-09T21:14:49.830Z,23.50
2022-08-09T21:18:29.568Z,23.46
2022-08-09T21:20:18.108Z,23.43
2022-08-09T21:22:52.757Z,23.43
2022-08-09T21:25:44.071Z,23.40
2022-08-09T21:28:33.574Z,23.41
2022-08-09T21:31:13.627Z,23.38
2022-08-09T21:33:50.768Z,23.38
2022-08-09T21:36:23.959Z,23.36
2022-08-09T21:38:57.324Z,23.33
2022-08-09T21:42:04.788Z,23.33
2022-08-09T21:44:34.715Z,23.29
2022-08-09T21:47:04.065Z,23.27
2022-08-09T21:49:40.246Z,23.24
2022-08-09T21:52:17.595Z,23.23
2022-08-09T21:55:02.953Z,23.19
2022-08-09T21:57:38.734Z,23.13
2022-08-09T22:00:25.691Z,23.11
2022-08-09T22:02:58.708Z,23.06
2022-08-09T22:05:36.848Z,23.04
2022-08-09T22:08:13.228Z,22.98
2022-08-09T22:11:49.352Z,22.96
2022-08-09T22:13:33.897Z,22.88
2022-08-09T22:16:03.704Z,22.78
2022-08-09T22:18:30.862Z,22.75
2022-08-09T22:21:00.343Z,22.71
2022-08-09T22:23:27.221Z,22.69
2022-08-09T22:26:07.258Z,22.58
2022-08-09T22:28:43.570Z,22.54
2022-08-09T22:31:20.252Z,22.55
2022-08-09T22:33:55.435Z,22.47
2022-08-09T22:36:22.328Z,22.48
2022-08-09T22:38:49.074Z,22.37
2022-08-09T22:41:15.634Z,22.32
2022-08-09T22:44:01.873Z,22.25
2022-08-09T22:48:15.227Z,22.20
2022-08-09T22:49:16.335Z,22.15
2022-08-09T22:51:49.580Z,22.15
2022-08-09T22:54:16.994Z,22.08
2022-08-09T22:56:48.069Z,22.03
2022-08-09T22:59:56.774Z,22.01
2022-08-09T23:02:07.879Z,21.99
2022-08-09T23:04:34.786Z,21.96
2022-08-09T23:08:23.318Z,21.91
2022-08-09T23:10:11.356Z,21.89
2022-08-09T23:12:38.062Z,21.85
2022-08-09T23:15:05.459Z,21.83
2022-08-09T23:17:32.335Z,21.84
2022-08-09T23:20:01.118Z,21.84
2022-08-09T23:22:34.309Z,21.80
2022-08-09T23:25:03.395Z,21.76
2022-08-09T23:27:29.915Z,21.73
2022-08-09T23:29:56.458Z,21.69
2022-08-09T23:32:23.167Z,21.69
2022-08-09T23:34:49.822Z,21.66
2022-08-09T23:37:25.936Z,21.62
2022-08-09T23:39:52.609Z,21.65
2022-08-09T23:42:19.187Z,21.65
2022-08-09T23:44:45.813Z,21.60
2022-08-09T23:47:12.542Z,21.56
2022-08-09T23:49:39.067Z,21.50
2022-08-09T23:52:05.699Z,21.46
2022-08-09T23:54:32.503Z,21.41
2022-08-09T23:56:59.175Z,21.37
2022-08-09T23:59:25.970Z,21.33
